Time;durP1;ratioP1;P1;durP2;ratioP2;P2;SDS_P1;SDS_P2;PMS_P1;PMS_P2;Temp;Humidity;BMP_temperature;BMP_pressure;BME280_temperature;BME280_humidity;BME280_pressure;Samples;Min_cycle;Max_cycle;Signal;HPM_P1;HPM_P2
2023/08/21 00:01:33;;;;;;;9.40;2.97;;;;;;;21.53;89.54;102179.06;4809153;29;20062;-66
2023/08/21 00:04:00;;;;;;;11.93;3.58;;;;;;;21.53;89.64;102176.31;4808544;29;20058;-66
2023/08/21 00:06:28;;;;;;;9.75;3.08;;;;;;;21.57;89.46;102168.97;4792095;29;20055;-66
2023/08/21 00:08:56;;;;;;;10.27;3.33;;;;;;;21.49;89.78;102166.94;4803310;29;20050;-65
2023/08/21 00:11:24;;;;;;;7.28;2.70;;;;;;;21.43;90.49;102165.41;4792064;29;20081;-65
2023/08/21 00:13:51;;;;;;;7.70;2.83;;;;;;;21.42;90.34;102172.09;4808552;29;20053;-66
2023/08/21 00:16:19;;;;;;;9.38;2.90;;;;;;;21.44;90.41;102164.28;4808627;29;20055;-66
2023/08/21 00:18:47;;;;;;;12.85;3.28;;;;;;;21.41;89.88;102159.38;4781323;29;20058;-66
2023/08/21 00:21:15;;;;;;;9.40;3.35;;;;;;;21.37;90.33;102163.84;4791999;29;20130;-65
2023/08/21 00:23:43;;;;;;;8.50;3.30;;;;;;;21.33;90.55;102162.81;4808571;29;20062;-66
2023/08/21 00:26:10;;;;;;;10.98;3.13;;;;;;;21.28;91.17;102172.06;4808674;29;20054;-65
2023/08/21 00:28:38;;;;;;;8.30;2.83;;;;;;;21.28;91.47;102166.50;4807530;29;20059;-66
2023/08/21 00:31:06;;;;;;;9.00;3.20;;;;;;;21.32;91.43;102162.00;4797492;29;20500;-66
2023/08/21 00:33:34;;;;;;;10.07;3.00;;;;;;;21.34;90.98;102162.53;4803629;29;20058;-66
2023/08/21 00:36:02;;;;;;;9.07;2.90;;;;;;;21.33;90.88;102163.63;4807169;29;20050;-66
2023/08/21 00:38:29;;;;;;;12.73;3.30;;;;;;;21.31;91.33;102162.31;4807115;29;20074;-66
2023/08/21 00:40:59;;;;;;;6.72;2.65;;;;;;;21.33;91.49;102154.50;4803168;29;20055;-65
2023/08/21 00:43:26;;;;;;;9.63;2.72;;;;;;;21.36;91.34;102159.41;4796349;29;20054;-66
2023/08/21 00:45:55;;;;;;;7.18;2.70;;;;;;;21.35;91.16;102155.81;4793691;29;20057;-65
2023/08/21 00:48:23;;;;;;;9.18;2.90;;;;;;;21.33;91.09;102157.28;4809837;29;20051;-65
2023/08/21 00:50:51;;;;;;;9.43;2.72;;;;;;;21.31;90.95;102152.06;4790954;29;20133;-65
2023/08/21 00:53:19;;;;;;;10.38;2.75;;;;;;;21.30;91.39;102158.72;4794709;29;20416;-65
2023/08/21 00:55:47;;;;;;;8.57;3.08;;;;;;;21.31;91.31;102149.28;4792083;29;20067;-65
2023/08/21 00:58:17;;;;;;;15.25;3.35;;;;;;;21.26;91.45;102146.59;4792750;29;20062;-64
2023/08/21 01:00:50;;;;;;;11.13;3.03;;;;;;;21.17;92.00;102154.81;4802014;29;20059;-63
2023/08/21 01:03:19;;;;;;;9.48;3.13;;;;;;;21.10;92.42;102148.88;4806088;29;20051;-59
2023/08/21 01:05:47;;;;;;;15.55;3.42;;;;;;;21.05;92.79;102140.66;4837028;29;20070;-64
2023/08/21 01:08:40;;;;;;;8.75;2.78;;;;;;;21.02;93.25;102147.63;4799354;29;20062;-65
2023/08/21 01:11:19;;;;;;;8.97;2.90;;;;;;;21.05;93.33;102148.97;4791716;29;20499;-65
2023/08/21 01:14:04;;;;;;;9.38;3.00;;;;;;;21.11;93.05;102153.25;4791491;29;20384;-65
2023/08/21 01:16:32;;;;;;;10.30;3.15;;;;;;;21.12;93.01;102157.69;4776145;29;20066;-66
2023/08/21 01:19:00;;;;;;;12.40;3.30;;;;;;;21.13;92.96;102153.78;4807195;29;20055;-66
2023/08/21 01:21:28;;;;;;;12.10;3.28;;;;;;;21.15;93.18;102157.06;4805367;29;20050;-65
2023/08/21 01:23:56;;;;;;;12.93;3.35;;;;;;;21.17;92.76;102157.59;4806214;29;20051;-65
2023/08/21 01:26:23;;;;;;;7.57;2.65;;;;;;;21.16;92.71;102153.16;4805532;29;20055;-66
2023/08/21 01:28:53;;;;;;;9.02;3.10;;;;;;;21.14;92.92;102154.59;4803670;29;20059;-65
2023/08/21 01:31:33;;;;;;;8.75;2.92;;;;;;;21.14;92.74;102160.13;4806429;29;20416;-66
2023/08/21 01:34:05;;;;;;;9.50;3.17;;;;;;;21.13;92.89;102147.44;4789124;29;20050;-65
2023/08/21 01:36:32;;;;;;;9.55;2.97;;;;;;;21.09;93.15;102149.97;4794109;29;20050;-65
2023/08/21 01:39:00;;;;;;;10.57;2.95;;;;;;;21.06;93.46;102151.41;4819320;29;20058;-65
2023/08/21 01:41:28;;;;;;;13.90;3.70;;;;;;;21.05;93.70;102151.75;4791144;29;20057;-66
2023/08/21 01:43:56;;;;;;;11.57;3.10;;;;;;;21.01;93.89;102156.25;4806186;29;20043;-66
2023/08/21 01:46:23;;;;;;;10.63;2.95;;;;;;;20.95;94.36;102154.69;4796777;29;20059;-66
2023/08/21 01:48:51;;;;;;;7.07;3.00;;;;;;;20.95;94.68;102147.22;4792302;29;20055;-65
2023/08/21 01:51:20;;;;;;;8.93;3.20;;;;;;;20.99;94.56;102141.88;4818535;29;20483;-67
2023/08/21 01:53:48;;;;;;;10.68;3.40;;;;;;;20.95;94.48;102140.81;4806569;29;20110;-66
2023/08/21 01:56:16;;;;;;;9.48;3.50;;;;;;;20.85;95.21;102141.84;4806564;29;20047;-66
2023/08/21 01:58:44;;;;;;;10.65;3.50;;;;;;;20.80;95.55;102145.53;4799172;29;20385;-66
2023/08/21 02:01:12;;;;;;;7.45;2.90;;;;;;;20.77;95.81;102148.91;4783600;29;20051;-66
2023/08/21 02:03:41;;;;;;;12.05;3.63;;;;;;;20.73;96.23;102145.09;4787652;29;20050;-65
2023/08/21 02:06:09;;;;;;;10.30;3.30;;;;;;;20.70;96.82;102154.03;4811642;29;20054;-65
2023/08/21 02:08:37;;;;;;;10.30;3.60;;;;;;;20.67;97.16;102146.34;4805520;29;20061;-65
2023/08/21 02:11:05;;;;;;;10.32;3.20;;;;;;;20.65;97.25;102143.03;4775353;29;20055;-66
2023/08/21 02:13:32;;;;;;;9.93;2.97;;;;;;;20.65;97.32;102148.59;4781976;29;20061;-66
2023/08/21 02:16:01;;;;;;;12.57;3.60;;;;;;;20.66;97.06;102144.72;4790567;29;20042;-66
2023/08/21 02:18:29;;;;;;;9.48;3.40;;;;;;;20.64;96.80;102145.00;4805411;29;20058;-65
2023/08/21 02:20:58;;;;;;;9.55;3.30;;;;;;;20.61;97.32;102150.31;4779349;29;20059;-65
2023/08/21 02:23:25;;;;;;;12.05;4.22;;;;;;;20.62;97.52;102149.19;4775580;29;20054;-65
2023/08/21 02:25:54;;;;;;;8.65;3.40;;;;;;;20.64;97.33;102158.03;4791907;29;20047;-66
2023/08/21 02:28:21;;;;;;;9.93;3.38;;;;;;;20.68;97.45;102153.50;4792219;29;20059;-66
2023/08/21 02:30:49;;;;;;;9.63;3.25;;;;;;;20.71;97.17;102141.84;4791160;29;20059;-65
2023/08/21 02:33:17;;;;;;;9.85;3.55;;;;;;;20.72;96.88;102149.00;4807121;29;20050;-66
2023/08/21 02:35:45;;;;;;;10.60;3.38;;;;;;;20.74;96.99;102154.25;4802839;29;20055;-66
2023/08/21 02:38:12;;;;;;;9.05;3.10;;;;;;;20.72;97.46;102149.00;4779439;29;20065;-66
2023/08/21 02:40:41;;;;;;;11.55;3.75;;;;;;;20.73;97.46;102156.19;4779759;29;20055;-67
2023/08/21 02:43:09;;;;;;;10.32;3.05;;;;;;;20.75;97.21;102148.38;4794036;29;20058;-65
2023/08/21 02:45:37;;;;;;;9.60;2.97;;;;;;;20.75;97.08;102151.16;4795770;29;20504;-65
2023/08/21 02:48:05;;;;;;;8.43;3.22;;;;;;;20.75;97.25;102150.34;4779219;29;20058;-64
2023/08/21 02:50:34;;;;;;;10.07;3.20;;;;;;;20.74;97.50;102155.06;4793772;29;20084;-67
2023/08/21 02:53:02;;;;;;;12.48;3.90;;;;;;;20.75;97.49;102153.94;4778955;29;20508;-65
2023/08/21 02:55:29;;;;;;;9.23;3.70;;;;;;;20.74;97.56;102157.03;4793801;29;20067;-65
2023/08/21 02:57:57;;;;;;;10.27;3.70;;;;;;;20.72;97.37;102156.50;4790137;29;20096;-65
2023/08/21 03:00:25;;;;;;;8.23;3.45;;;;;;;20.71;97.44;102152.91;4807979;29;20062;-65
2023/08/21 03:02:53;;;;;;;10.23;3.63;;;;;;;20.70;97.63;102162.34;4820703;29;20054;-66
2023/08/21 03:05:20;;;;;;;10.32;3.17;;;;;;;20.69;98.07;102155.16;4795909;29;20169;-66
2023/08/21 03:07:49;;;;;;;13.73;3.47;;;;;;;20.64;98.00;102153.31;4811608;29;20046;-66
2023/08/21 03:10:19;;;;;;;10.23;3.08;;;;;;;20.61;98.41;102148.38;4802323;29;20051;-66
2023/08/21 03:12:47;;;;;;;9.52;3.58;;;;;;;20.59;98.44;102149.81;4807922;29;20526;-66
2023/08/21 03:15:15;;;;;;;10.90;3.42;;;;;;;20.54;98.56;102147.94;4808924;29;20050;-66
2023/08/21 03:17:44;;;;;;;11.48;3.47;;;;;;;20.48;98.72;102157.44;4793539;29;20078;-66
2023/08/21 03:20:12;;;;;;;7.93;3.20;;;;;;;20.39;98.71;102157.28;4793596;29;20051;-66
2023/08/21 03:22:40;;;;;;;11.50;3.55;;;;;;;20.36;98.28;102152.34;4793021;29;20058;-66
2023/08/21 03:25:08;;;;;;;12.75;3.92;;;;;;;20.34;98.18;102153.78;4792925;29;20050;-66
2023/08/21 03:27:44;;;;;;;8.05;3.13;;;;;;;20.28;98.74;102150.28;4793501;29;20057;-67
2023/08/21 03:30:14;;;;;;;10.00;3.53;;;;;;;20.26;98.18;102151.72;4808244;29;20047;-66
2023/08/21 03:32:42;;;;;;;10.88;3.78;;;;;;;20.18;98.77;102151.28;4808891;29;20055;-66
2023/08/21 03:35:11;;;;;;;14.07;3.83;;;;;;;20.16;98.80;102153.53;4792748;29;20462;-66
2023/08/21 03:37:39;;;;;;;9.68;3.60;;;;;;;20.19;98.90;102157.63;4792865;29;20116;-66
2023/08/21 03:40:10;;;;;;;9.43;3.20;;;;;;;20.24;98.68;102151.19;4777926;29;20504;-66
2023/08/21 03:42:37;;;;;;;10.70;3.45;;;;;;;20.26;98.18;102146.19;4792670;29;20065;-65
2023/08/21 03:45:07;;;;;;;10.02;3.40;;;;;;;20.21;98.30;102158.97;4776405;29;20042;-66
2023/08/21 03:47:34;;;;;;;14.10;4.10;;;;;;;20.24;98.23;102151.19;4809159;29;20517;-66
2023/08/21 03:50:09;;;;;;;10.23;3.10;;;;;;;20.24;98.50;102148.44;4792826;29;20054;-66
2023/08/21 03:52:37;;;;;;;15.18;3.60;;;;;;;20.26;97.98;102155.31;4778802;29;20050;-67
2023/08/21 03:55:05;;;;;;;8.57;3.47;;;;;;;20.25;98.42;102161.94;4792582;29;20069;-65
2023/08/21 03:57:33;;;;;;;10.13;3.55;;;;;;;20.22;98.53;102149.53;4808936;29;20388;-65
2023/08/21 04:00:01;;;;;;;13.38;3.65;;;;;;;20.20;98.90;102153.72;4792576;29;20047;-65
2023/08/21 04:02:30;;;;;;;8.63;3.35;;;;;;;20.16;99.47;102147.16;4790699;29;20657;-66
2023/08/21 04:04:58;;;;;;;10.82;3.72;;;;;;;20.16;99.78;102144.41;4780337;29;20051;-66
2023/08/21 04:07:26;;;;;;;10.63;3.65;;;;;;;20.14;100.00;102143.88;4804711;29;20500;-65
2023/08/21 04:09:53;;;;;;;11.45;3.45;;;;;;;20.14;99.83;102138.34;4808456;29;20054;-65
2023/08/21 04:12:21;;;;;;;9.55;3.60;;;;;;;20.11;100.00;102150.00;4810056;29;20065;-66
2023/08/21 04:14:49;;;;;;;10.63;4.10;;;;;;;20.10;100.00;102151.13;4778598;29;20500;-66
2023/08/21 04:17:21;;;;;;;10.82;4.28;;;;;;;20.06;100.00;102159.22;4806014;29;20089;-66
2023/08/21 04:19:50;;;;;;;7.68;3.30;;;;;;;20.07;100.00;102154.50;4792502;29;20047;-66
2023/08/21 04:22:18;;;;;;;10.73;3.63;;;;;;;20.09;100.00;102160.56;4808177;29;20051;-66
2023/08/21 04:24:46;;;;;;;11.38;4.00;;;;;;;20.07;100.00;102152.53;4792153;29;20055;-66
2023/08/21 04:27:14;;;;;;;11.45;4.20;;;;;;;20.08;100.00;102153.38;4788646;30;20059;-66
2023/08/21 04:29:42;;;;;;;11.52;3.90;;;;;;;20.08;100.00;102156.94;4788934;30;20061;-66
2023/08/21 04:32:09;;;;;;;11.90;4.15;;;;;;;20.06;100.00;102163.91;4788942;29;20051;-66
2023/08/21 04:34:37;;;;;;;11.38;4.03;;;;;;;20.06;100.00;102158.38;4807492;29;20050;-66
2023/08/21 04:37:05;;;;;;;12.27;4.05;;;;;;;20.04;100.00;102161.47;4786430;29;20091;-67
2023/08/21 04:39:35;;;;;;;11.25;4.10;;;;;;;20.04;100.00;102155.09;4806895;29;20473;-67
2023/08/21 04:42:03;;;;;;;11.75;4.15;;;;;;;20.05;100.00;102162.28;4805590;29;20059;-67
2023/08/21 04:44:31;;;;;;;13.88;4.07;;;;;;;20.06;100.00;102161.13;4777893;29;20050;-65
2023/08/21 04:47:28;;;;;;;11.23;3.83;;;;;;;20.07;100.00;102160.84;4794947;29;20450;-65
2023/08/21 04:49:59;;;;;;;10.15;4.22;;;;;;;20.06;100.00;102163.91;4807240;29;20126;-67
2023/08/21 04:52:29;;;;;;;8.65;3.75;;;;;;;20.06;100.00;102169.44;4805579;29;20054;-65
2023/08/21 04:54:57;;;;;;;9.95;3.92;;;;;;;20.04;100.00;102168.94;4777077;29;20050;-64
2023/08/21 04:57:24;;;;;;;12.20;4.45;;;;;;;19.93;100.00;102171.00;4794201;29;20046;-64
2023/08/21 04:59:52;;;;;;;13.88;4.53;;;;;;;19.85;100.00;102175.28;4800149;29;20047;-67
2023/08/21 05:02:22;;;;;;;12.18;4.03;;;;;;;19.89;100.00;102181.88;4791844;29;20054;-67
2023/08/21 05:04:51;;;;;;;11.65;4.97;;;;;;;19.93;100.00;102180.13;4800795;29;20092;-59
2023/08/21 05:07:19;;;;;;;9.75;3.95;;;;;;;19.96;100.00;102181.47;4809623;29;20051;-59
2023/08/21 05:09:47;;;;;;;11.07;4.35;;;;;;;20.02;100.00;102188.59;4825251;29;20062;-64
2023/08/21 05:12:18;;;;;;;13.07;4.40;;;;;;;20.03;100.00;102192.19;4815818;29;20138;-65
2023/08/21 05:14:46;;;;;;;7.53;3.88;;;;;;;19.99;100.00;102187.25;4818822;29;20051;-56
2023/08/21 05:17:14;;;;;;;13.27;4.28;;;;;;;19.96;100.00;102190.63;4819158;29;20122;-57
2023/08/21 05:19:42;;;;;;;12.38;4.07;;;;;;;19.95;100.00;102197.25;4828072;29;20070;-58
2023/08/21 05:22:09;;;;;;;15.23;4.65;;;;;;;19.95;100.00;102193.69;4804265;29;20053;-65
2023/08/21 05:24:38;;;;;;;12.15;4.40;;;;;;;19.96;100.00;102198.91;4792459;29;20047;-65
2023/08/21 05:27:07;;;;;;;13.00;4.75;;;;;;;19.97;100.00;102195.03;4791532;29;20477;-65
2023/08/21 05:29:34;;;;;;;12.50;4.15;;;;;;;19.98;100.00;102195.84;4782462;29;20047;-65
2023/08/21 05:32:03;;;;;;;9.43;3.90;;;;;;;20.02;100.00;102207.16;4776175;29;20051;-65
2023/08/21 05:34:31;;;;;;;12.57;4.82;;;;;;;20.04;100.00;102210.44;4776663;29;20051;-66
2023/08/21 05:36:59;;;;;;;12.57;4.13;;;;;;;20.04;100.00;102213.22;4761351;29;20071;-65
2023/08/21 05:39:27;;;;;;;11.75;4.53;;;;;;;20.06;100.00;102210.94;4792066;29;20082;-64
2023/08/21 05:41:55;;;;;;;14.68;4.18;;;;;;;20.08;100.00;102205.94;4806692;29;20066;-66
2023/08/21 05:44:22;;;;;;;11.88;3.65;;;;;;;20.11;100.00;102210.91;4776366;29;20065;-63
2023/08/21 05:46:50;;;;;;;12.75;4.38;;;;;;;20.14;100.00;102210.28;4808710;29;20492;-65
2023/08/21 05:49:19;;;;;;;14.52;4.50;;;;;;;20.12;100.00;102212.53;4806060;29;20058;-65
2023/08/21 05:51:47;;;;;;;12.52;4.63;;;;;;;20.09;100.00;102218.66;4775937;29;20107;-66
2023/08/21 05:54:15;;;;;;;10.32;4.30;;;;;;;20.04;100.00;102215.97;4790702;29;20046;-66
2023/08/21 05:56:43;;;;;;;15.23;4.68;;;;;;;20.03;100.00;102217.09;4775635;29;20063;-67
2023/08/21 05:59:30;;;;;;;11.68;4.90;;;;;;;20.05;100.00;102223.16;4821753;29;20144;-66
2023/08/21 06:01:59;;;;;;;13.07;5.45;;;;;;;20.07;100.00;102220.91;4790742;29;20059;-66
2023/08/21 06:04:28;;;;;;;8.85;3.92;;;;;;;20.11;100.00;102216.44;4798638;29;20058;-65
2023/08/21 06:07:01;;;;;;;12.38;4.38;;;;;;;20.15;100.00;102223.81;4806758;29;20047;-66
2023/08/21 06:09:31;;;;;;;12.70;4.68;;;;;;;20.07;100.00;102218.13;4788717;29;20046;-66
2023/08/21 06:12:16;;;;;;;9.95;4.30;;;;;;;19.98;100.00;102218.78;4693288;29;10000872;-66
2023/08/21 06:14:45;;;;;;;10.07;4.20;;;;;;;19.96;100.00;102215.53;4786667;29;20265;-66
2023/08/21 06:17:13;;;;;;;10.48;3.65;;;;;;;19.95;100.00;102213.03;4757176;29;20054;-65
2023/08/21 06:19:41;;;;;;;10.57;4.55;;;;;;;19.98;100.00;102213.25;4795216;29;20050;-66
2023/08/21 06:22:08;;;;;;;11.68;4.40;;;;;;;20.03;100.00;102225.38;4817082;29;20055;-66
2023/08/21 06:24:36;;;;;;;13.05;4.65;;;;;;;19.95;100.00;102219.38;4802293;29;20063;-67
2023/08/21 06:27:07;;;;;;;12.15;3.58;;;;;;;19.99;100.00;102220.44;4792746;29;20066;-66
2023/08/21 06:29:37;;;;;;;10.25;3.40;;;;;;;20.07;100.00;102226.44;4777515;29;20058;-65
2023/08/21 06:32:05;;;;;;;9.40;3.78;;;;;;;20.14;100.00;102222.19;4819882;29;20062;-65
2023/08/21 06:34:33;;;;;;;12.27;3.72;;;;;;;20.22;100.00;102223.44;4786704;29;20058;-65
2023/08/21 06:37:01;;;;;;;8.15;3.47;;;;;;;20.26;100.00;102224.50;4787827;29;20070;-66
2023/08/21 06:39:28;;;;;;;7.72;3.60;;;;;;;20.31;100.00;102229.13;4804344;29;20063;-65
2023/08/21 06:41:58;;;;;;;13.27;3.85;;;;;;;20.32;100.00;102222.47;4792114;29;20065;-66
2023/08/21 06:44:33;;;;;;;13.05;4.03;;;;;;;20.27;100.00;102220.59;4805257;29;20066;-66
2023/08/21 06:47:01;;;;;;;10.77;4.00;;;;;;;20.26;100.00;102226.44;4805273;29;20431;-66
2023/08/21 06:49:29;;;;;;;13.02;3.95;;;;;;;20.29;100.00;102229.44;4804899;29;20072;-66
2023/08/21 06:51:57;;;;;;;12.45;3.60;;;;;;;20.32;100.00;102228.00;4819141;29;20054;-66
2023/08/21 06:54:25;;;;;;;11.00;3.55;;;;;;;20.32;99.35;102231.59;4820004;29;20640;-66
2023/08/21 06:56:52;;;;;;;12.80;4.10;;;;;;;20.38;99.31;102233.16;4824114;29;20042;-66
2023/08/21 06:59:20;;;;;;;10.40;3.50;;;;;;;20.39;98.21;102232.03;4824821;29;20054;-65
2023/08/21 07:01:48;;;;;;;8.32;3.17;;;;;;;20.42;97.88;102234.22;4824311;29;20051;-66
2023/08/21 07:04:17;;;;;;;11.63;3.47;;;;;;;20.48;97.83;102232.19;4824575;29;20046;-66
2023/08/21 07:06:45;;;;;;;16.10;9.27;;;;;;;20.52;97.29;102224.94;4824175;29;20054;-65
2023/08/21 07:09:13;;;;;;;16.35;5.78;;;;;;;20.55;96.34;102227.13;4824083;29;20055;-66
2023/08/21 07:11:41;;;;;;;12.07;3.70;;;;;;;20.61;94.26;102230.63;4807527;29;20057;-65
2023/08/21 07:14:09;;;;;;;9.05;3.00;;;;;;;20.63;93.10;102233.91;4809034;29;20054;-66
2023/08/21 07:16:37;;;;;;;12.88;3.28;;;;;;;20.64;91.59;102235.56;4808202;29;20128;-66
2023/08/21 07:19:04;;;;;;;15.75;4.35;;;;;;;20.67;92.21;102231.38;4824316;29;20058;-66
2023/08/21 07:21:35;;;;;;;10.13;3.30;;;;;;;20.69;91.81;102238.25;4826823;29;20058;-65
2023/08/21 07:24:03;;;;;;;10.70;2.97;;;;;;;20.74;91.58;102238.16;4809454;29;20054;-65
2023/08/21 07:26:31;;;;;;;8.93;2.80;;;;;;;20.78;90.01;102230.91;4828107;29;20046;-65
2023/08/21 07:29:00;;;;;;;12.60;3.22;;;;;;;20.82;89.67;102229.16;4827907;29;20180;-66
2023/08/21 07:31:28;;;;;;;11.43;3.00;;;;;;;20.87;89.70;102221.88;4827653;29;20517;-65
2023/08/21 07:33:56;;;;;;;13.25;3.15;;;;;;;20.91;88.58;102222.94;4795521;29;20058;-65
2023/08/21 07:36:24;;;;;;;13.10;3.17;;;;;;;20.95;89.07;102235.03;4827146;29;20047;-64
2023/08/21 07:38:51;;;;;;;11.00;2.90;;;;;;;20.95;87.16;102232.25;4811407;29;20521;-66
2023/08/21 07:41:19;;;;;;;12.30;2.92;;;;;;;20.94;87.54;102234.22;4826818;29;20046;-65
2023/08/21 07:43:47;;;;;;;12.90;3.25;;;;;;;20.93;86.15;102240.09;4811483;29;20058;-66
2023/08/21 07:46:18;;;;;;;7.22;2.50;;;;;;;20.92;85.28;102238.41;4811149;29;20415;-67
2023/08/21 07:48:46;;;;;;;13.10;3.38;;;;;;;20.94;85.98;102238.94;4826412;29;20054;-67
2023/08/21 07:51:14;;;;;;;9.88;2.55;;;;;;;20.97;84.99;102244.72;4826342;29;20065;-65
2023/08/21 07:53:42;;;;;;;14.20;3.53;;;;;;;21.01;85.04;102247.69;4811230;29;20058;-65
2023/08/21 07:56:11;;;;;;;9.57;2.53;;;;;;;21.04;85.29;102245.13;4828191;29;20065;-65
2023/08/21 07:58:38;;;;;;;9.98;2.42;;;;;;;21.08;84.37;102245.34;4814572;29;20102;-65
2023/08/21 08:01:06;;;;;;;10.40;2.47;;;;;;;21.14;84.08;102244.13;4828283;29;20050;-65
2023/08/21 08:03:34;;;;;;;10.05;3.45;;;;;;;21.19;84.85;102235.72;4811505;29;20418;-66
2023/08/21 08:06:02;;;;;;;10.02;2.38;;;;;;;21.25;84.92;102245.56;4810948;29;20052;-65
2023/08/21 08:08:30;;;;;;;13.57;3.03;;;;;;;21.28;83.61;102244.94;4827110;29;20057;-64
2023/08/21 08:11:07;;;;;;;10.00;2.58;;;;;;;21.32;82.46;102249.91;4826362;29;20464;-66
2023/08/21 08:13:35;;;;;;;9.85;2.45;;;;;;;21.34;82.42;102253.19;4808679;29;20047;-65
2023/08/21 08:16:03;;;;;;;8.60;2.45;;;;;;;21.38;82.75;102254.22;4807659;29;20066;-66
2023/08/21 08:18:30;;;;;;;9.18;3.20;;;;;;;21.39;80.63;102265.03;4817424;29;20058;-64
2023/08/21 08:20:58;;;;;;;8.45;2.70;;;;;;;21.39;80.49;102258.66;4825650;29;20077;-66
2023/08/21 08:23:27;;;;;;;9.27;2.30;;;;;;;21.41;80.80;102245.34;4809919;29;20066;-66
2023/08/21 08:25:55;;;;;;;10.15;2.15;;;;;;;21.45;81.33;102247.19;4826595;29;20057;-66
2023/08/21 08:28:23;;;;;;;6.88;2.33;;;;;;;21.49;81.33;102252.94;4795251;29;20054;-65
2023/08/21 08:30:51;;;;;;;8.68;2.60;;;;;;;21.52;82.06;102249.53;4825819;29;20057;-63
2023/08/21 08:33:18;;;;;;;8.52;2.45;;;;;;;21.53;81.28;102245.66;4826611;29;20054;-66
2023/08/21 08:35:46;;;;;;;6.38;2.03;;;;;;;21.54;81.34;102249.22;4809414;29;20420;-65
2023/08/21 08:38:14;;;;;;;14.15;2.88;;;;;;;21.57;81.38;102243.88;4824479;29;20067;-64
2023/08/21 08:40:47;;;;;;;10.45;2.60;;;;;;;21.57;78.87;102251.38;4810750;29;20057;-66
2023/08/21 08:43:15;;;;;;;11.40;2.67;;;;;;;21.59;78.52;102246.34;4810178;29;20552;-65
2023/08/21 08:45:45;;;;;;;13.40;3.03;;;;;;;21.61;78.21;102244.91;4826237;29;20054;-66
2023/08/21 08:48:16;;;;;;;7.05;2.30;;;;;;;21.63;78.23;102245.44;4810308;29;20046;-66
2023/08/21 08:50:45;;;;;;;11.98;2.67;;;;;;;21.66;78.34;102255.91;4795507;29;20058;-66
2023/08/21 08:53:13;;;;;;;8.68;2.53;;;;;;;21.68;77.03;102259.19;4794820;29;20406;-65
2023/08/21 08:55:44;;;;;;;8.85;2.28;;;;;;;21.69;77.04;102255.31;4809665;29;20596;-65
2023/08/21 08:58:12;;;;;;;10.65;2.65;;;;;;;21.73;76.88;102263.00;4794906;29;20480;-67
2023/08/21 09:00:40;;;;;;;7.32;2.20;;;;;;;21.75;76.71;102257.97;4825674;29;20057;-65
2023/08/21 09:03:10;;;;;;;7.82;2.25;;;;;;;21.79;77.51;102250.66;4825728;29;20058;-65
2023/08/21 09:05:40;;;;;;;11.18;2.90;;;;;;;21.82;76.77;102247.28;4809399;29;20054;-65
2023/08/21 09:08:15;;;;;;;8.48;2.25;;;;;;;21.83;77.19;102243.34;4807897;29;20051;-65
2023/08/21 09:10:45;;;;;;;8.27;2.22;;;;;;;21.83;76.92;102246.13;4808055;29;20165;-65
2023/08/21 09:13:15;;;;;;;6.97;2.10;;;;;;;21.86;76.85;102242.72;4818662;29;20050;-65
2023/08/21 09:15:47;;;;;;;11.27;2.67;;;;;;;21.89;76.75;102236.59;4810363;29;20042;-65
2023/08/21 09:18:15;;;;;;;8.60;2.58;;;;;;;21.91;76.68;102248.16;4797776;29;20057;-64
2023/08/21 09:20:45;;;;;;;10.40;2.70;;;;;;;21.93;76.52;102245.91;4842423;29;20090;-61
2023/08/21 09:23:17;;;;;;;8.43;2.38;;;;;;;21.98;76.08;102242.19;4825919;29;20051;-63
2023/08/21 09:25:49;;;;;;;9.15;2.35;;;;;;;22.01;75.55;102239.63;4806412;29;20050;-65
2023/08/21 09:28:21;;;;;;;6.53;2.10;;;;;;;22.04;75.91;102244.56;4798543;29;20058;-64
2023/08/21 09:30:51;;;;;;;10.25;2.60;;;;;;;22.07;75.74;102243.94;4826405;29;20042;-59
2023/08/21 09:33:21;;;;;;;8.30;2.53;;;;;;;22.11;75.48;102242.19;4827327;29;20050;-57
2023/08/21 09:35:52;;;;;;;9.80;2.60;;;;;;;22.13;74.16;102242.69;4823445;29;20056;-65
2023/08/21 09:38:20;;;;;;;8.20;2.50;;;;;;;22.14;73.98;102237.97;4817741;29;20137;-64
2023/08/21 09:40:55;;;;;;;8.50;2.10;;;;;;;22.18;75.01;102238.16;4812940;29;20141;-66
2023/08/21 09:43:24;;;;;;;8.82;2.28;;;;;;;22.19;74.58;102234.25;4808581;29;20054;-66
2023/08/21 09:45:55;;;;;;;7.72;2.30;;;;;;;22.19;74.54;102243.38;4809215;29;20083;-66
2023/08/21 09:48:29;;;;;;;7.93;2.45;;;;;;;22.23;74.66;102240.84;4809157;29;20448;-65
2023/08/21 09:50:59;;;;;;;7.70;2.50;;;;;;;22.29;74.92;102239.59;4809209;29;20507;-65
2023/08/21 09:53:27;;;;;;;7.28;2.60;;;;;;;22.34;74.23;102239.47;4809449;29;20054;-65
2023/08/21 09:56:03;;;;;;;10.93;2.60;;;;;;;22.37;74.72;102236.09;4810865;29;20058;-65
2023/08/21 09:58:31;;;;;;;7.50;2.50;;;;;;;22.40;74.51;102235.44;4793704;29;20523;-66
2023/08/21 10:01:00;;;;;;;9.43;2.25;;;;;;;22.44;74.42;102236.47;4808876;29;20054;-65
2023/08/21 10:03:28;;;;;;;14.38;3.20;;;;;;;22.49;74.24;102232.75;4809465;29;20060;-66
2023/08/21 10:05:58;;;;;;;11.10;3.00;;;;;;;22.51;72.95;102233.22;4807166;29;20048;-65
2023/08/21 10:08:26;;;;;;;9.27;2.70;;;;;;;22.50;71.30;102224.09;4824518;29;20102;-65
2023/08/21 10:10:55;;;;;;;10.52;2.53;;;;;;;22.49;71.74;102227.19;4825168;29;20054;-63
2023/08/21 10:13:22;;;;;;;10.48;3.10;;;;;;;22.49;72.85;102229.97;4811624;29;20049;-65
2023/08/21 10:15:50;;;;;;;8.02;2.75;;;;;;;22.49;72.06;102221.63;4829291;29;20102;-64
2023/08/21 10:18:23;;;;;;;7.35;2.17;;;;;;;22.47;71.47;102216.38;4823656;29;20061;-64
2023/08/21 10:20:52;;;;;;;9.75;2.72;;;;;;;22.46;71.11;102219.47;4832723;29;20054;-64
2023/08/21 10:23:29;;;;;;;10.85;3.03;;;;;;;22.45;71.53;102213.09;4807714;29;20054;-62
2023/08/21 10:25:58;;;;;;;8.07;2.65;;;;;;;22.50;72.11;102212.97;4824649;29;20046;-65
2023/08/21 10:28:47;;;;;;;12.90;3.45;;;;;;;22.57;72.93;102217.28;4808625;29;20065;-66
2023/08/21 10:31:43;;;;;;;13.07;2.65;;;;;;;22.62;73.07;102214.38;4823405;29;20077;-63
2023/08/21 10:34:12;;;;;;;12.27;3.30;;;;;;;22.67;73.30;102219.78;4808228;29;20317;-64
2023/08/21 10:36:44;;;;;;;11.30;3.03;;;;;;;22.72;72.32;102214.09;4807416;29;20569;-64
2023/08/21 10:39:21;;;;;;;10.50;3.17;;;;;;;22.72;71.98;102209.34;4808356;29;20062;-64
2023/08/21 10:41:56;;;;;;;9.25;2.72;;;;;;;22.75;72.50;102210.69;4802606;29;20054;-65
2023/08/21 10:45:00;;;;;;;10.00;2.70;;;;;;;22.77;72.22;102209.22;4811644;29;20054;-65
2023/08/21 10:47:28;;;;;;;7.30;2.53;;;;;;;22.81;71.89;102222.50;4824128;29;20066;-65
2023/08/21 10:49:58;;;;;;;8.68;2.83;;;;;;;22.82;71.71;102215.81;4807919;29;20459;-65
2023/08/21 10:52:29;;;;;;;10.55;2.72;;;;;;;22.87;70.80;102219.25;4809290;29;20051;-64
2023/08/21 10:55:01;;;;;;;7.07;2.30;;;;;;;22.91;70.08;102222.25;4811219;29;20061;-64
2023/08/21 10:57:30;;;;;;;9.02;2.80;;;;;;;22.91;70.35;102228.59;4796497;29;20077;-64
2023/08/21 11:00:04;;;;;;;10.55;3.22;;;;;;;22.96;71.56;102233.22;4812165;29;20057;-64
2023/08/21 11:02:33;;;;;;;12.13;3.13;;;;;;;23.03;70.27;102232.81;4808852;29;20084;-64
2023/08/21 11:05:03;;;;;;;15.18;3.10;;;;;;;23.05;70.42;102227.75;4811563;29;20147;-64
2023/08/21 11:07:43;;;;;;;10.70;3.10;;;;;;;23.08;70.97;102221.53;4810685;29;20430;-64
2023/08/21 11:10:15;;;;;;;10.55;3.22;;;;;;;23.14;71.06;102215.53;4827958;29;20050;-63
2023/08/21 11:12:51;;;;;;;7.93;2.90;;;;;;;23.18;71.12;102210.94;4826749;29;20058;-65
2023/08/21 11:15:19;;;;;;;9.25;2.70;;;;;;;23.23;70.97;102218.34;4827068;29;20198;-64
2023/08/21 11:17:58;;;;;;;9.45;2.83;;;;;;;23.22;64.80;102216.72;4828557;29;20500;-66
2023/08/21 11:20:35;;;;;;;7.82;2.70;;;;;;;23.23;65.01;102218.34;4811447;29;20054;-65
2023/08/21 11:23:07;;;;;;;11.65;3.03;;;;;;;23.24;64.78;102213.63;4811739;29;20058;-65
2023/08/21 11:25:39;;;;;;;8.95;2.20;;;;;;;23.26;63.46;102217.72;4835993;29;20053;-65
2023/08/21 11:28:08;;;;;;;11.13;3.10;;;;;;;23.31;62.94;102216.75;4830769;29;20054;-64
2023/08/21 11:30:36;;;;;;;8.10;2.53;;;;;;;23.31;63.28;102219.53;4811960;29;20054;-63